createdAt,value
2018-11-14T00:00:07.923Z,1004.22
2018-11-14T00:01:08.146Z,1004.18
2018-11-14T00:02:08.367Z,1004.20
2018-11-14T00:03:08.586Z,1004.20
2018-11-14T00:04:08.812Z,1004.21
2018-11-14T00:05:09.034Z,1004.24
2018-11-14T00:06:09.259Z,1004.31
2018-11-14T00:07:09.491Z,1004.32
2018-11-14T00:08:09.713Z,1004.31
2018-11-14T00:09:09.937Z,1004.34
2018-11-14T00:10:10.173Z,1004.32
2018-11-14T00:11:10.382Z,1004.35
2018-11-14T00:12:10.607Z,1004.30
2018-11-14T00:13:10.830Z,1004.30
2018-11-14T00:14:11.052Z,1004.30
2018-11-14T00:15:11.281Z,1004.30
2018-11-14T00:16:11.506Z,1004.38
2018-11-14T00:17:11.733Z,1004.36
2018-11-14T00:18:11.950Z,1004.38
2018-11-14T00:19:12.176Z,1004.42
2018-11-14T00:20:12.440Z,1004.41
2018-11-14T00:21:12.623Z,1004.42
2018-11-14T00:22:12.853Z,1004.46
2018-11-14T00:23:13.072Z,1004.46
2018-11-14T00:24:13.298Z,1004.46
2018-11-14T00:25:13.520Z,1004.46
2018-11-14T00:26:13.749Z,1004.47
2018-11-14T00:27:13.973Z,1004.49
2018-11-14T00:28:14.197Z,1004.50
2018-11-14T00:29:14.446Z,1004.51
2018-11-14T00:30:14.637Z,1004.53
2018-11-14T00:31:14.863Z,1004.55
2018-11-14T00:32:15.089Z,1004.56
2018-11-14T00:33:15.567Z,1004.60
2018-11-14T00:34:15.537Z,1004.61
2018-11-14T00:35:15.762Z,1004.61
2018-11-14T00:36:15.987Z,1004.64
2018-11-14T00:37:16.210Z,1004.63
2018-11-14T00:38:16.437Z,1004.66
2018-11-14T00:39:16.659Z,1004.64
2018-11-14T00:40:16.887Z,1004.62
2018-11-14T00:41:17.110Z,1004.58
2018-11-14T00:42:17.331Z,1004.63
2018-11-14T00:43:17.561Z,1004.63
2018-11-14T00:44:17.773Z,1004.59
2018-11-14T00:45:17.997Z,1004.62
2018-11-14T00:46:18.223Z,1004.59
2018-11-14T00:47:18.446Z,1004.59
2018-11-14T00:48:18.673Z,1004.61
2018-11-14T00:49:18.897Z,1004.61
2018-11-14T00:50:19.122Z,1004.65
2018-11-14T00:51:19.345Z,1004.64
2018-11-14T00:52:19.572Z,1004.66
2018-11-14T00:53:19.796Z,1004.70
2018-11-14T00:54:20.018Z,1004.64
2018-11-14T00:55:20.241Z,1004.67
2018-11-14T00:56:20.463Z,1004.69
2018-11-14T00:57:20.682Z,1004.68
2018-11-14T00:58:20.906Z,1004.71
2018-11-14T00:59:21.130Z,1004.70
2018-11-14T01:00:21.355Z,1004.74
2018-11-14T01:01:21.631Z,1004.73
2018-11-14T01:02:21.799Z,1004.77
2018-11-14T01:03:22.022Z,1004.78
2018-11-14T01:04:22.248Z,1004.81
2018-11-14T01:05:22.467Z,1004.78
2018-11-14T01:06:22.693Z,1004.84
2018-11-14T01:07:22.916Z,1004.83
2018-11-14T01:08:23.141Z,1004.80
2018-11-14T01:09:23.368Z,1004.82
2018-11-14T01:10:23.587Z,1004.84
2018-11-14T01:11:23.810Z,1004.85
2018-11-14T01:12:24.031Z,1004.82
2018-11-14T01:13:24.254Z,1004.84
2018-11-14T01:14:24.529Z,1004.87
2018-11-14T01:15:24.696Z,1004.89
2018-11-14T01:16:24.923Z,1004.85
2018-11-14T01:17:25.226Z,1004.85
2018-11-14T01:18:25.371Z,1004.84
2018-11-14T01:19:25.592Z,1004.88
2018-11-14T01:20:25.806Z,1004.85
2018-11-14T01:21:26.044Z,1004.83
2018-11-14T01:22:26.265Z,1004.80
2018-11-14T01:23:26.492Z,1004.81
2018-11-14T01:24:26.715Z,1004.84
2018-11-14T01:25:26.940Z,1004.82
2018-11-14T01:26:27.172Z,1004.80
2018-11-14T01:27:27.386Z,1004.79
2018-11-14T01:28:27.608Z,1004.83
2018-11-14T01:29:27.838Z,1004.83
2018-11-14T01:30:28.055Z,1004.82
2018-11-14T01:31:28.273Z,1004.83
2018-11-14T01:32:28.499Z,1004.81
2018-11-14T01:33:28.724Z,1004.84
2018-11-14T01:34:28.946Z,1004.84
2018-11-14T01:35:29.172Z,1004.84
2018-11-14T01:36:29.393Z,1004.83
2018-11-14T01:37:29.611Z,1004.82
2018-11-14T01:38:29.832Z,1004.79
2018-11-14T01:39:30.058Z,1004.83
2018-11-14T01:40:30.283Z,1004.75
2018-11-14T01:41:30.508Z,1004.73
2018-11-14T01:42:30.731Z,1004.75
2018-11-14T01:43:30.955Z,1004.72
2018-11-14T01:44:31.180Z,1004.72
2018-11-14T01:45:31.400Z,1004.72
2018-11-14T01:46:31.627Z,1004.68
2018-11-14T01:47:31.848Z,1004.62
2018-11-14T01:48:32.068Z,1004.57
2018-11-14T01:49:32.295Z,1004.55
2018-11-14T01:50:32.516Z,1004.54
2018-11-14T01:51:32.739Z,1004.54
2018-11-14T01:52:32.962Z,1004.56
2018-11-14T01:53:33.184Z,1004.57
2018-11-14T01:54:33.409Z,1004.55
2018-11-14T01:55:33.631Z,1004.57
2018-11-14T01:56:33.847Z,1004.54
2018-11-14T01:57:34.073Z,1004.50
2018-11-14T01:58:34.296Z,1004.52
2018-11-14T01:59:34.518Z,1004.54
2018-11-14T02:00:34.743Z,1004.54
2018-11-14T02:01:34.961Z,1004.60
2018-11-14T02:02:35.184Z,1004.63
2018-11-14T02:03:35.408Z,1004.64
2018-11-14T02:04:35.639Z,1004.63
2018-11-14T02:05:35.853Z,1004.58
2018-11-14T02:06:36.077Z,1004.58
2018-11-14T02:07:36.300Z,1004.59
2018-11-14T02:08:36.525Z,1004.63
2018-11-14T02:09:36.751Z,1004.59
2018-11-14T02:10:36.973Z,1004.58
2018-11-14T02:11:37.199Z,1004.57
2018-11-14T02:12:37.413Z,1004.51
2018-11-14T02:13:37.629Z,1004.50
2018-11-14T02:14:37.857Z,1004.48
2018-11-14T02:15:38.082Z,1004.50
2018-11-14T02:16:38.304Z,1004.48
2018-11-14T02:17:38.528Z,1004.51
2018-11-14T02:18:38.752Z,1004.56
2018-11-14T02:19:38.973Z,1004.57
2018-11-14T02:20:39.197Z,1004.60
2018-11-14T02:21:39.423Z,1004.60
2018-11-14T02:22:39.647Z,1004.64
2018-11-14T02:23:39.863Z,1004.68
2018-11-14T02:24:40.087Z,1004.71
2018-11-14T02:25:40.316Z,1004.73
2018-11-14T02:26:40.540Z,1004.70
2018-11-14T02:27:40.765Z,1004.69
2018-11-14T02:28:40.986Z,1004.71
2018-11-14T02:29:41.209Z,1004.72
2018-11-14T02:30:41.436Z,1004.71
2018-11-14T02:31:41.659Z,1004.70
2018-11-14T02:32:41.883Z,1004.70
2018-11-14T02:33:42.098Z,1004.69
2018-11-14T02:34:42.319Z,1004.70
2018-11-14T02:35:42.545Z,1004.70
2018-11-14T02:36:42.771Z,1004.70
2018-11-14T02:37:42.992Z,1004.68
2018-11-14T02:38:43.216Z,1004.71
2018-11-14T02:39:43.442Z,1004.71
2018-11-14T02:40:43.671Z,1004.71
2018-11-14T02:41:43.886Z,1004.73
2018-11-14T02:42:44.120Z,1004.73
2018-11-14T02:43:44.337Z,1004.73
2018-11-14T02:44:44.571Z,1004.70
2018-11-14T02:45:44.785Z,1004.73
2018-11-14T02:46:45.009Z,1004.75
2018-11-14T02:47:45.233Z,1004.77
2018-11-14T02:48:45.458Z,1004.77
2018-11-14T02:49:45.681Z,1004.76
2018-11-14T02:50:45.901Z,1004.76
2018-11-14T02:51:46.120Z,1004.74
2018-11-14T02:52:46.348Z,1004.72
2018-11-14T02:53:46.566Z,1004.73
2018-11-14T02:54:46.792Z,1004.71
2018-11-14T02:55:47.014Z,1004.71
2018-11-14T02:56:47.236Z,1004.69
2018-11-14T02:57:47.464Z,1004.71
2018-11-14T02:58:47.688Z,1004.71
2018-11-14T02:59:47.910Z,1004.71
2018-11-14T03:00:48.134Z,1004.71
2018-11-14T03:01:48.357Z,1004.71
2018-11-14T03:02:48.588Z,1004.74
2018-11-14T03:03:48.805Z,1004.76
2018-11-14T03:04:49.033Z,1004.75
2018-11-14T03:05:49.258Z,1004.75
2018-11-14T03:06:49.476Z,1004.75
2018-11-14T03:07:49.699Z,1004.74
2018-11-14T03:08:49.923Z,1004.69
2018-11-14T03:09:50.145Z,1004.70
2018-11-14T03:10:50.366Z,1004.67
2018-11-14T03:11:50.589Z,1004.65
2018-11-14T03:12:50.818Z,1004.65
2018-11-14T03:13:51.040Z,1004.61
2018-11-14T03:14:51.265Z,1004.61
2018-11-14T03:15:51.491Z,1004.63
2018-11-14T03:16:51.724Z,1004.60
2018-11-14T03:17:51.932Z,1004.58
2018-11-14T03:18:52.160Z,1004.58
2018-11-14T03:19:52.384Z,1004.50
2018-11-14T03:20:52.609Z,1004.49
2018-11-14T03:21:52.822Z,1004.50
2018-11-14T03:22:53.067Z,1004.48
2018-11-14T03:23:53.296Z,1004.50
2018-11-14T03:24:53.525Z,1004.51
2018-11-14T03:25:53.748Z,1004.54
2018-11-14T03:26:53.974Z,1004.55
2018-11-14T03:27:54.200Z,1004.58
2018-11-14T03:28:54.418Z,1004.57
2018-11-14T03:29:54.659Z,1004.54
2018-11-14T03:30:54.874Z,1004.53
2018-11-14T03:31:55.115Z,1004.56
2018-11-14T03:32:55.326Z,1004.54
2018-11-14T03:33:55.549Z,1004.56
2018-11-14T03:34:55.780Z,1004.57
2018-11-14T03:35:56.002Z,1004.58
2018-11-14T03:36:56.225Z,1004.55
2018-11-14T03:37:56.441Z,1004.53
2018-11-14T03:38:56.665Z,1004.50
2018-11-14T03:39:56.883Z,1004.50
2018-11-14T03:40:57.107Z,1004.52
2018-11-14T03:41:57.330Z,1004.49
2018-11-14T03:42:57.555Z,1004.51
2018-11-14T03:43:57.776Z,1004.52
2018-11-14T03:44:58.002Z,1004.49
2018-11-14T03:45:58.223Z,1004.48
2018-11-14T03:46:58.449Z,1004.50
2018-11-14T03:47:58.674Z,1004.54
2018-11-14T03:48:58.896Z,1004.54
2018-11-14T03:49:59.119Z,1004.54
2018-11-14T03:50:59.381Z,1004.53
2018-11-14T03:51:59.602Z,1004.59
2018-11-14T03:52:59.833Z,1004.58
2018-11-14T03:54:00.046Z,1004.58
2018-11-14T03:55:00.266Z,1004.59
2018-11-14T03:56:00.494Z,1004.61
2018-11-14T03:57:00.720Z,1004.63
2018-11-14T03:58:00.945Z,1004.63
2018-11-14T03:59:01.159Z,1004.63
2018-11-14T04:00:01.399Z,1004.58
2018-11-14T04:01:01.611Z,1004.58
2018-11-14T04:02:01.836Z,1004.55
2018-11-14T04:03:02.056Z,1004.57
2018-11-14T04:04:02.281Z,1004.57
2018-11-14T04:05:02.510Z,1004.57
2018-11-14T04:06:02.733Z,1004.52
2018-11-14T04:07:02.956Z,1004.55
2018-11-14T04:08:03.181Z,1004.52
2018-11-14T04:09:03.425Z,1004.51
2018-11-14T04:10:03.638Z,1004.52
2018-11-14T04:11:03.874Z,1004.53
2018-11-14T04:12:04.083Z,1004.49
2018-11-14T04:13:04.306Z,1004.51
2018-11-14T04:14:04.533Z,1004.48
2018-11-14T04:15:04.775Z,1004.51
2018-11-14T04:16:05.003Z,1004.54
2018-11-14T04:17:05.234Z,1004.47
2018-11-14T04:18:05.450Z,1004.48
2018-11-14T04:19:05.668Z,1004.49
2018-11-14T04:20:05.891Z,1004.49
2018-11-14T04:21:06.111Z,1004.51
2018-11-14T04:22:06.332Z,1004.44
2018-11-14T04:23:06.559Z,1004.46
2018-11-14T04:24:06.779Z,1004.47
2018-11-14T04:25:07.001Z,1004.46
2018-11-14T04:26:07.222Z,1004.47
2018-11-14T04:27:07.446Z,1004.44
2018-11-14T04:28:07.667Z,1004.44
2018-11-14T04:29:07.920Z,1004.41
2018-11-14T04:30:08.177Z,1004.39
2018-11-14T04:31:08.403Z,1004.41
2018-11-14T04:32:08.624Z,1004.40
2018-11-14T04:33:08.843Z,1004.42
2018-11-14T04:34:09.068Z,1004.43
2018-11-14T04:35:09.303Z,1004.44
2018-11-14T04:36:09.518Z,1004.42
2018-11-14T04:37:09.751Z,1004.44
2018-11-14T04:38:09.975Z,1004.42
2018-11-14T04:39:10.197Z,1004.41
2018-11-14T04:40:10.424Z,1004.38
2018-11-14T04:41:10.648Z,1004.37
2018-11-14T04:42:10.875Z,1004.37
2018-11-14T04:43:11.099Z,1004.35
2018-11-14T04:44:11.331Z,1004.28
2018-11-14T04:45:11.550Z,1004.32
2018-11-14T04:46:11.775Z,1004.29
2018-11-14T04:47:12.021Z,1004.29
2018-11-14T04:48:12.357Z,1004.32
2018-11-14T04:49:12.466Z,1004.30
2018-11-14T04:50:12.692Z,1004.37
2018-11-14T04:51:12.934Z,1004.35
2018-11-14T04:52:13.159Z,1004.35
2018-11-14T04:53:13.375Z,1004.32
2018-11-14T04:54:13.598Z,1004.32
2018-11-14T04:55:13.822Z,1004.32
2018-11-14T04:56:14.046Z,1004.25
2018-11-14T04:57:14.275Z,1004.28
2018-11-14T04:58:14.495Z,1004.24
2018-11-14T04:59:14.720Z,1004.21
2018-11-14T05:00:14.946Z,1004.26
2018-11-14T05:01:15.177Z,1004.24
2018-11-14T05:02:15.400Z,1004.25
2018-11-14T05:03:15.617Z,1004.25
2018-11-14T05:04:15.843Z,1004.23
2018-11-14T05:05:16.067Z,1004.21
2018-11-14T05:06:16.296Z,1004.22
2018-11-14T05:07:16.519Z,1004.22
2018-11-14T05:08:16.738Z,1004.20
2018-11-14T05:09:16.967Z,1004.20
2018-11-14T05:10:17.190Z,1004.21
2018-11-14T05:11:17.413Z,1004.19
2018-11-14T05:12:17.643Z,1004.15
2018-11-14T05:13:17.863Z,1004.14
2018-11-14T05:14:18.090Z,1004.13
2018-11-14T05:15:18.316Z,1004.14
2018-11-14T05:16:18.541Z,1004.13
2018-11-14T05:17:18.765Z,1004.13
2018-11-14T05:18:18.988Z,1004.13
2018-11-14T05:19:19.213Z,1004.15
2018-11-14T05:20:19.435Z,1004.12
2018-11-14T05:21:19.659Z,1004.13
2018-11-14T05:22:19.882Z,1004.13
2018-11-14T05:23:20.109Z,1004.16
2018-11-14T05:24:20.341Z,1004.18
2018-11-14T05:25:20.559Z,1004.20
2018-11-14T05:26:20.784Z,1004.22
2018-11-14T05:27:21.004Z,1004.24
2018-11-14T05:28:21.229Z,1004.22
2018-11-14T05:29:21.452Z,1004.23
2018-11-14T05:30:21.680Z,1004.22
2018-11-14T05:31:21.902Z,1004.26
2018-11-14T05:32:22.128Z,1004.22
2018-11-14T05:33:22.349Z,1004.23
2018-11-14T05:34:22.575Z,1004.25
2018-11-14T05:35:22.802Z,1004.24
2018-11-14T05:36:23.020Z,1004.24
2018-11-14T05:37:23.249Z,1004.20
2018-11-14T05:38:23.471Z,1004.15
2018-11-14T05:39:23.693Z,1004.19
2018-11-14T05:40:23.913Z,1004.18
2018-11-14T05:41:24.137Z,1004.18
2018-11-14T05:42:24.362Z,1004.15
2018-11-14T05:43:24.582Z,1004.16
2018-11-14T05:44:24.807Z,1004.17
2018-11-14T05:45:25.048Z,1004.16
2018-11-14T05:46:25.255Z,1004.18
2018-11-14T05:47:25.487Z,1004.16
2018-11-14T05:48:25.705Z,1004.19
2018-11-14T05:49:25.933Z,1004.21
2018-11-14T05:50:26.156Z,1004.20
2018-11-14T05:51:26.382Z,1004.19
2018-11-14T05:52:26.597Z,1004.21
2018-11-14T05:53:26.821Z,1004.19
2018-11-14T05:54:27.056Z,1004.22
2018-11-14T05:55:27.271Z,1004.24
2018-11-14T05:56:27.499Z,1004.25
2018-11-14T05:57:27.724Z,1004.29
2018-11-14T05:58:27.951Z,1004.26
2018-11-14T05:59:28.177Z,1004.25
2018-11-14T06:00:28.396Z,1004.29
2018-11-14T06:01:28.623Z,1004.26
2018-11-14T06:02:28.847Z,1004.27
2018-11-14T06:03:29.071Z,1004.26
2018-11-14T06:04:29.294Z,1004.27
2018-11-14T06:05:29.519Z,1004.35
2018-11-14T06:06:29.734Z,1004.35
2018-11-14T06:07:29.983Z,1004.36
2018-11-14T06:08:30.192Z,1004.32
2018-11-14T06:09:30.418Z,1004.34
2018-11-14T06:10:30.641Z,1004.33
2018-11-14T06:11:30.861Z,1004.30
2018-11-14T06:12:31.085Z,1004.30
2018-11-14T06:13:31.309Z,1004.26
2018-11-14T06:14:31.534Z,1004.27
2018-11-14T06:15:31.755Z,1004.29
2018-11-14T06:16:31.979Z,1004.29
2018-11-14T06:17:32.206Z,1004.29
2018-11-14T06:18:32.430Z,1004.32
2018-11-14T06:19:32.654Z,1004.30
2018-11-14T06:20:32.878Z,1004.30
2018-11-14T06:21:33.104Z,1004.37
2018-11-14T06:22:33.326Z,1004.35
2018-11-14T06:23:33.556Z,1004.36
2018-11-14T06:24:33.773Z,1004.39
2018-11-14T06:25:33.993Z,1004.37
2018-11-14T06:26:34.220Z,1004.39
2018-11-14T06:27:34.443Z,1004.38
2018-11-14T06:28:34.672Z,1004.43
2018-11-14T06:29:34.916Z,1004.45
2018-11-14T06:30:35.117Z,1004.49
2018-11-14T06:31:35.344Z,1004.49
2018-11-14T06:32:35.565Z,1004.44
2018-11-14T06:33:35.788Z,1004.44
2018-11-14T06:34:36.006Z,1004.41
2018-11-14T06:35:36.240Z,1004.35
2018-11-14T06:36:36.458Z,1004.31
2018-11-14T06:37:36.680Z,1004.34
2018-11-14T06:38:36.905Z,1004.33
2018-11-14T06:39:37.130Z,1004.39
2018-11-14T06:40:37.354Z,1004.37
2018-11-14T06:41:37.602Z,1004.34
2018-11-14T06:42:37.801Z,1004.41
2018-11-14T06:43:38.025Z,1004.37
2018-11-14T06:44:38.249Z,1004.37
2018-11-14T06:45:38.474Z,1004.34
2018-11-14T06:46:38.703Z,1004.32
2018-11-14T06:47:38.924Z,1004.29
2018-11-14T06:48:39.149Z,1004.30
2018-11-14T06:49:39.378Z,1004.27
2018-11-14T06:50:39.598Z,1004.31
2018-11-14T06:51:39.832Z,1004.32
2018-11-14T06:52:40.052Z,1004.34
2018-11-14T06:53:40.272Z,1004.34
2018-11-14T06:54:40.501Z,1004.36
2018-11-14T06:55:40.723Z,1004.38
2018-11-14T06:56:40.957Z,1004.38
2018-11-14T06:57:41.170Z,1004.47
2018-11-14T06:58:41.421Z,1004.43
2018-11-14T06:59:41.651Z,1004.47
2018-11-14T07:00:41.846Z,1004.48
2018-11-14T07:01:42.070Z,1004.46
2018-11-14T07:02:42.295Z,1004.49
2018-11-14T07:03:42.518Z,1004.49
2018-11-14T07:04:42.748Z,1004.48
2018-11-14T07:05:43.059Z,1004.51
2018-11-14T07:06:43.196Z,1004.52
2018-11-14T07:07:43.434Z,1004.49
2018-11-14T07:08:43.640Z,1004.54
2018-11-14T07:09:43.867Z,1004.53
2018-11-14T07:10:44.091Z,1004.48
2018-11-14T07:11:44.316Z,1004.51
2018-11-14T07:12:44.545Z,1004.48
2018-11-14T07:13:44.771Z,1004.52
2018-11-14T07:14:44.995Z,1004.54
2018-11-14T07:15:45.217Z,1004.56
2018-11-14T07:16:45.443Z,1004.56
2018-11-14T07:17:45.700Z,1004.60
2018-11-14T07:18:45.890Z,1004.57
2018-11-14T07:19:46.124Z,1004.65
2018-11-14T07:20:46.342Z,1004.62
2018-11-14T07:21:46.567Z,1004.65
2018-11-14T07:22:46.798Z,1004.61
2018-11-14T07:23:47.028Z,1004.68
2018-11-14T07:24:47.275Z,1004.61
2018-11-14T07:25:47.465Z,1004.61
2018-11-14T07:26:47.687Z,1004.60
2018-11-14T07:27:47.912Z,1004.63
2018-11-14T07:28:48.136Z,1004.60
2018-11-14T07:29:48.362Z,1004.59
2018-11-14T07:30:48.591Z,1004.58
2018-11-14T07:31:48.815Z,1004.52
2018-11-14T07:32:49.031Z,1004.54
2018-11-14T07:33:49.253Z,1004.56
2018-11-14T07:34:49.478Z,1004.55
2018-11-14T07:35:49.706Z,1004.59
2018-11-14T07:36:49.932Z,1004.62
2018-11-14T07:37:50.181Z,1004.63
2018-11-14T07:38:50.375Z,1004.61
2018-11-14T07:39:50.598Z,1004.64
2018-11-14T07:40:50.817Z,1004.67
2018-11-14T07:41:51.042Z,1004.73
2018-11-14T07:42:51.265Z,1004.69
2018-11-14T07:43:51.496Z,1004.67
2018-11-14T07:44:51.717Z,1004.71
2018-11-14T07:45:51.941Z,1004.71
2018-11-14T07:46:52.166Z,1004.69
2018-11-14T07:47:52.394Z,1004.67
2018-11-14T07:48:52.650Z,1004.64
2018-11-14T07:49:52.900Z,1004.64
2018-11-14T07:50:53.072Z,1004.70
2018-11-14T07:51:53.292Z,1004.69
2018-11-14T07:52:53.522Z,1004.72
2018-11-14T07:53:53.742Z,1004.71
2018-11-14T07:54:53.968Z,1004.71
2018-11-14T07:55:54.193Z,1004.70
2018-11-14T07:56:54.417Z,1004.74
2018-11-14T07:57:54.649Z,1004.72
2018-11-14T07:58:54.870Z,1004.72
2018-11-14T07:59:55.094Z,1004.72
2018-11-14T08:00:55.328Z,1004.69
2018-11-14T08:01:55.552Z,1004.68
2018-11-14T08:02:55.772Z,1004.70
2018-11-14T08:03:55.999Z,1004.67
2018-11-14T08:04:56.218Z,1004.67
2018-11-14T08:05:56.441Z,1004.66
2018-11-14T08:06:56.666Z,1004.68
2018-11-14T08:07:56.971Z,1004.64
2018-11-14T08:08:57.112Z,1004.69
2018-11-14T08:09:57.340Z,1004.71
2018-11-14T08:10:57.563Z,1004.73
2018-11-14T08:11:57.791Z,1004.76
2018-11-14T08:12:58.010Z,1004.71
2018-11-14T08:13:58.237Z,1004.73
2018-11-14T08:14:58.464Z,1004.71
2018-11-14T08:15:58.684Z,1004.71
2018-11-14T08:16:58.911Z,1004.71
2018-11-14T08:17:59.137Z,1004.67
2018-11-14T08:18:59.421Z,1004.67
2018-11-14T08:19:59.585Z,1004.67
2018-11-14T08:20:59.815Z,1004.67
2018-11-14T08:22:00.041Z,1004.70
2018-11-14T08:23:00.263Z,1004.70
2018-11-14T08:24:00.487Z,1004.73
2018-11-14T08:25:00.764Z,1004.74
2018-11-14T08:26:00.939Z,1004.81
2018-11-14T08:27:01.156Z,1004.79
2018-11-14T08:28:01.384Z,1004.79
2018-11-14T08:29:01.612Z,1004.84
2018-11-14T08:30:01.834Z,1004.81
2018-11-14T08:31:02.057Z,1004.81
2018-11-14T08:32:02.284Z,1004.82
2018-11-14T08:33:02.508Z,1004.82
2018-11-14T08:34:02.730Z,1004.82
2018-11-14T08:35:02.959Z,1004.83
2018-11-14T08:36:03.180Z,1004.80
2018-11-14T08:37:03.406Z,1004.81
2018-11-14T08:38:03.631Z,1004.79
2018-11-14T08:39:03.920Z,1004.84
2018-11-14T08:40:04.075Z,1004.81
2018-11-14T08:41:04.304Z,1004.81
2018-11-14T08:42:04.526Z,1004.80
2018-11-14T08:43:04.761Z,1004.77
2018-11-14T08:44:04.979Z,1004.80
2018-11-14T08:45:05.196Z,1004.82
2018-11-14T08:46:05.429Z,1004.83
2018-11-14T08:47:05.645Z,1004.78
2018-11-14T08:48:05.870Z,1004.81
2018-11-14T08:49:06.095Z,1004.74
2018-11-14T08:50:06.324Z,1004.76
2018-11-14T08:51:06.541Z,1004.75
2018-11-14T08:52:06.766Z,1004.73
2018-11-14T08:53:06.995Z,1004.70
2018-11-14T08:54:07.214Z,1004.76
2018-11-14T08:55:07.439Z,1004.74
2018-11-14T08:56:07.668Z,1004.75
2018-11-14T08:57:07.891Z,1004.74
2018-11-14T08:58:08.196Z,1004.74
2018-11-14T08:59:08.336Z,1004.72
2018-11-14T09:00:08.561Z,1004.68
2018-11-14T09:01:08.782Z,1004.71
2018-11-14T09:02:09.006Z,1004.70
2018-11-14T09:03:09.232Z,1004.67
2018-11-14T09:04:09.528Z,1004.71
2018-11-14T09:05:09.679Z,1004.71
2018-11-14T09:06:09.910Z,1004.77
2018-11-14T09:07:10.127Z,1004.74
2018-11-14T09:08:10.362Z,1004.76
2018-11-14T09:09:10.577Z,1004.76
2018-11-14T09:10:10.797Z,1004.73
2018-11-14T09:11:11.126Z,1004.70
2018-11-14T09:12:11.255Z,1004.71
2018-11-14T09:13:11.578Z,1004.68
2018-11-14T09:14:11.709Z,1004.68
2018-11-14T09:15:11.982Z,1004.68
2018-11-14T09:16:12.155Z,1004.72
2018-11-14T09:17:12.380Z,1004.73
2018-11-14T09:18:12.637Z,1004.75
2018-11-14T09:19:12.831Z,1004.76
2018-11-14T09:20:13.054Z,1004.78
2018-11-14T09:21:13.284Z,1004.78
2018-11-14T09:22:13.505Z,1004.78
2018-11-14T09:23:13.737Z,1004.80
2018-11-14T09:24:13.984Z,1004.77
2018-11-14T09:25:14.200Z,1004.80
2018-11-14T09:26:14.423Z,1004.86
2018-11-14T09:27:14.654Z,1004.82
2018-11-14T09:28:14.872Z,1004.89
2018-11-14T09:29:15.103Z,1004.88
2018-11-14T09:30:15.326Z,1004.85
2018-11-14T09:31:15.550Z,1004.83
2018-11-14T09:32:15.779Z,1004.87
2018-11-14T09:33:16.081Z,1004.89
2018-11-14T09:34:16.228Z,1004.92
2018-11-14T09:35:16.455Z,1004.97
2018-11-14T09:36:16.676Z,1004.92
2018-11-14T09:37:16.900Z,1004.96
2018-11-14T09:38:17.126Z,1004.94
2018-11-14T09:39:17.350Z,1004.90
2018-11-14T09:40:17.576Z,1004.90
2018-11-14T09:41:17.845Z,1004.93
2018-11-14T09:42:18.034Z,1004.92
2018-11-14T09:43:18.261Z,1004.96
2018-11-14T09:44:18.485Z,1004.95
2018-11-14T09:45:18.714Z,1004.97
2018-11-14T09:46:18.937Z,1004.97
2018-11-14T09:47:19.164Z,1004.97
2018-11-14T09:48:19.392Z,1004.95
2018-11-14T09:49:19.722Z,1004.94
2018-11-14T09:50:19.846Z,1004.93
2018-11-14T09:51:20.072Z,1004.97
2018-11-14T09:52:20.292Z,1004.95
2018-11-14T09:53:20.521Z,1004.95
2018-11-14T09:54:20.744Z,1004.95
2018-11-14T09:55:20.973Z,1004.95
2018-11-14T09:56:21.212Z,1004.90
2018-11-14T09:57:21.426Z,1004.88
2018-11-14T09:58:21.649Z,1004.85
2018-11-14T09:59:21.876Z,1004.82
2018-11-14T10:00:22.103Z,1004.79
2018-11-14T10:01:22.332Z,1004.74
2018-11-14T10:02:22.559Z,1004.76
2018-11-14T10:03:22.799Z,1004.72
2018-11-14T10:04:23.008Z,1004.75
2018-11-14T10:05:23.241Z,1004.75
2018-11-14T10:06:23.502Z,1004.72
2018-11-14T10:07:23.685Z,1004.74
2018-11-14T10:08:23.905Z,1004.76
2018-11-14T10:09:24.129Z,1004.75
2018-11-14T10:10:24.357Z,1004.75
2018-11-14T10:11:24.590Z,1004.79
2018-11-14T10:12:24.890Z,1004.69
2018-11-14T10:13:25.037Z,1004.68
2018-11-14T10:14:25.261Z,1004.69
2018-11-14T10:15:25.498Z,1004.70
2018-11-14T10:16:25.712Z,1004.69
2018-11-14T10:17:25.941Z,1004.64
2018-11-14T10:18:26.191Z,1004.67
2018-11-14T10:19:26.391Z,1004.60
2018-11-14T10:20:26.622Z,1004.58
2018-11-14T10:21:26.999Z,1004.57
2018-11-14T10:22:27.073Z,1004.58
2018-11-14T10:23:27.295Z,1004.61
2018-11-14T10:24:27.521Z,1004.60
2018-11-14T10:25:27.744Z,1004.63
2018-11-14T10:26:27.980Z,1004.62
2018-11-14T10:27:28.197Z,1004.64
2018-11-14T10:28:28.421Z,1004.61
2018-11-14T10:29:28.646Z,1004.62
2018-11-14T10:30:28.945Z,1004.62
2018-11-14T10:31:29.130Z,1004.58
2018-11-14T10:32:29.329Z,1004.56
2018-11-14T10:33:29.550Z,1004.57
2018-11-14T10:34:29.782Z,1004.56
2018-11-14T10:35:30.002Z,1004.58
2018-11-14T10:36:30.226Z,1004.57
2018-11-14T10:37:30.454Z,1004.58
2018-11-14T10:38:30.680Z,1004.55
2018-11-14T10:39:30.908Z,1004.60
2018-11-14T10:40:31.135Z,1004.64
2018-11-14T10:41:31.360Z,1004.65
2018-11-14T10:42:31.582Z,1004.63
2018-11-14T10:43:31.809Z,1004.65
2018-11-14T10:44:32.038Z,1004.67
2018-11-14T10:45:32.264Z,1004.65
2018-11-14T10:46:32.492Z,1004.63
2018-11-14T10:47:32.718Z,1004.64
2018-11-14T10:48:32.943Z,1004.64
2018-11-14T10:49:33.169Z,1004.65
2018-11-14T10:50:33.395Z,1004.64
2018-11-14T10:51:33.622Z,1004.65
2018-11-14T10:52:33.852Z,1004.68
2018-11-14T10:53:34.078Z,1004.68
2018-11-14T10:54:34.308Z,1004.71
2018-11-14T10:55:34.536Z,1004.71
2018-11-14T10:56:34.757Z,1004.71
2018-11-14T10:57:34.985Z,1004.70
2018-11-14T10:58:35.262Z,1004.71
2018-11-14T10:59:35.437Z,1004.69
2018-11-14T11:00:35.667Z,1004.71
2018-11-14T11:01:35.895Z,1004.73
2018-11-14T11:02:36.118Z,1004.73
2018-11-14T11:03:36.354Z,1004.72
2018-11-14T11:04:36.574Z,1004.66
2018-11-14T11:05:36.795Z,1004.63
2018-11-14T11:06:37.024Z,1004.60
2018-11-14T11:07:37.250Z,1004.61
2018-11-14T11:08:37.533Z,1004.59
2018-11-14T11:09:37.703Z,1004.60
2018-11-14T11:10:37.926Z,1004.58
2018-11-14T11:11:38.149Z,1004.61
2018-11-14T11:12:38.375Z,1004.61
2018-11-14T11:13:38.656Z,1004.66
2018-11-14T11:14:38.830Z,1004.65
2018-11-14T11:15:39.059Z,1004.67
2018-11-14T11:16:39.284Z,1004.66
2018-11-14T11:17:39.504Z,1004.67
2018-11-14T11:18:39.733Z,1004.65
2018-11-14T11:19:39.960Z,1004.63
2018-11-14T11:20:40.185Z,1004.65
2018-11-14T11:21:40.412Z,1004.62
2018-11-14T11:22:40.640Z,1004.60
2018-11-14T11:23:40.958Z,1004.52
2018-11-14T11:24:41.090Z,1004.45
2018-11-14T11:25:41.314Z,1004.45
2018-11-14T11:26:41.543Z,1004.40
2018-11-14T11:27:41.769Z,1004.34
2018-11-14T11:28:41.993Z,1004.36
2018-11-14T11:29:42.220Z,1004.39
2018-11-14T11:30:42.495Z,1004.38
2018-11-14T11:31:42.686Z,1004.40
2018-11-14T11:32:42.899Z,1004.45
2018-11-14T11:33:43.131Z,1004.44
2018-11-14T11:34:43.354Z,1004.46
2018-11-14T11:35:43.580Z,1004.45
2018-11-14T11:36:43.805Z,1004.51
2018-11-14T11:37:44.033Z,1004.50
2018-11-14T11:38:44.259Z,1004.51
2018-11-14T11:39:44.486Z,1004.49
2018-11-14T11:40:44.710Z,1004.51
2018-11-14T11:41:44.940Z,1004.51
2018-11-14T11:42:45.168Z,1004.50
2018-11-14T11:43:45.395Z,1004.56
2018-11-14T11:44:45.622Z,1004.54
2018-11-14T11:45:45.847Z,1004.49
2018-11-14T11:46:46.067Z,1004.53
2018-11-14T11:47:46.302Z,1004.51
2018-11-14T11:48:46.527Z,1004.53
2018-11-14T11:49:46.752Z,1004.48
2018-11-14T11:50:46.988Z,1004.49
2018-11-14T11:51:47.208Z,1004.51
2018-11-14T11:52:47.434Z,1004.48
2018-11-14T11:53:47.657Z,1004.44
2018-11-14T11:54:47.885Z,1004.45
2018-11-14T11:55:48.112Z,1004.43
2018-11-14T11:56:48.340Z,1004.42
2018-11-14T11:57:48.569Z,1004.42
2018-11-14T11:58:48.796Z,1004.39
2018-11-14T11:59:49.101Z,1004.41
2018-11-14T12:00:49.291Z,1004.41
2018-11-14T12:01:49.469Z,1004.40
2018-11-14T12:02:49.696Z,1004.38
2018-11-14T12:03:49.922Z,1004.41
2018-11-14T12:04:50.155Z,1004.41
2018-11-14T12:05:50.437Z,1004.43
2018-11-14T12:06:50.604Z,1004.42
2018-11-14T12:07:50.831Z,1004.44